sensor_id;sensor_type;location;lat;lon;timestamp;temperature;humidity
57030;DHT22;42920;45.306;20.448;2023-11-19T00:02:19;128.90;2252.80
57030;DHT22;42920;45.306;20.448;2023-11-19T00:04:44;128.90;2252.80
57030;DHT22;42920;45.306;20.448;2023-11-19T00:07:10;128.90;2252.80
57030;DHT22;42920;45.306;20.448;2023-11-19T00:09:37;128.90;2252.80
57030;DHT22;42920;45.306;20.448;2023-11-19T00:12:03;128.90;2252.80
57030;DHT22;42920;45.306;20.448;2023-11-19T00:14:29;128.90;2252.80
57030;DHT22;42920;45.306;20.448;2023-11-19T00:16:55;128.80;2252.80
57030;DHT22;42920;45.306;20.448;2023-11-19T00:19:20;128.80;2252.80
57030;DHT22;42920;45.306;20.448;2023-11-19T00:21:46;128.70;2252.80
57030;DHT22;42920;45.306;20.448;2023-11-19T00:24:12;128.80;2252.80
57030;DHT22;42920;45.306;20.448;2023-11-19T00:26:38;128.80;2252.80
57030;DHT22;42920;45.306;20.448;2023-11-19T00:29:04;128.60;2252.80
57030;DHT22;42920;45.306;20.448;2023-11-19T00:31:29;128.80;2252.80
57030;DHT22;42920;45.306;20.448;2023-11-19T00:33:55;128.70;2252.80
57030;DHT22;42920;45.306;20.448;2023-11-19T00:36:21;128.80;2252.80
57030;DHT22;42920;45.306;20.448;2023-11-19T00:38:49;128.50;2252.80
57030;DHT22;42920;45.306;20.448;2023-11-19T00:41:15;128.50;2252.80
57030;DHT22;42920;45.306;20.448;2023-11-19T00:43:42;128.30;2252.80
57030;DHT22;42920;45.306;20.448;2023-11-19T00:46:07;128.20;2252.80
57030;DHT22;42920;45.306;20.448;2023-11-19T00:48:33;128.40;2252.80
57030;DHT22;42920;45.306;20.448;2023-11-19T00:50:59;128.40;2252.80
57030;DHT22;42920;45.306;20.448;2023-11-19T00:53:24;128.30;2252.80
57030;DHT22;42920;45.306;20.448;2023-11-19T00:55:50;128.40;2252.80
57030;DHT22;42920;45.306;20.448;2023-11-19T00:58:16;128.50;2252.80
57030;DHT22;42920;45.306;20.448;2023-11-19T01:00:43;128.60;2252.80
57030;DHT22;42920;45.306;20.448;2023-11-19T01:03:09;128.90;2252.80
57030;DHT22;42920;45.306;20.448;2023-11-19T01:05:34;128.60;2252.80
57030;DHT22;42920;45.306;20.448;2023-11-19T01:08:00;128.70;2252.80
57030;DHT22;42920;45.306;20.448;2023-11-19T01:10:26;128.70;2252.80
57030;DHT22;42920;45.306;20.448;2023-11-19T01:12:51;128.70;2252.80
57030;DHT22;42920;45.306;20.448;2023-11-19T01:15:17;128.60;2252.80
57030;DHT22;42920;45.306;20.448;2023-11-19T01:17:44;128.70;2252.80
57030;DHT22;42920;45.306;20.448;2023-11-19T01:20:09;128.40;2252.80
57030;DHT22;42920;45.306;20.448;2023-11-19T01:22:38;128.20;2252.80
57030;DHT22;42920;45.306;20.448;2023-11-19T01:25:04;128.10;2252.80
57030;DHT22;42920;45.306;20.448;2023-11-19T01:27:30;128.20;2252.80
57030;DHT22;42920;45.306;20.448;2023-11-19T01:29:56;128.20;2252.80
57030;DHT22;42920;45.306;20.448;2023-11-19T01:32:22;128.20;2252.80
57030;DHT22;42920;45.306;20.448;2023-11-19T01:34:49;128.20;2252.80
57030;DHT22;42920;45.306;20.448;2023-11-19T01:37:14;128.30;2252.80
57030;DHT22;42920;45.306;20.448;2023-11-19T01:39:43;128.30;2252.80
57030;DHT22;42920;45.306;20.448;2023-11-19T01:42:09;128.20;2252.80
57030;DHT22;42920;45.306;20.448;2023-11-19T01:44:34;128.20;2252.80
57030;DHT22;42920;45.306;20.448;2023-11-19T01:47:00;128.10;2252.80
57030;DHT22;42920;45.306;20.448;2023-11-19T01:49:26;128.10;2252.80
57030;DHT22;42920;45.306;20.448;2023-11-19T01:51:51;103.30;2227.20
57030;DHT22;42920;45.306;20.448;2023-11-19T01:54:17;128.00;2252.80
57030;DHT22;42920;45.306;20.448;2023-11-19T01:56:43;128.10;2252.80
57030;DHT22;42920;45.306;20.448;2023-11-19T01:59:09;128.10;2252.80
57030;DHT22;42920;45.306;20.448;2023-11-19T02:01:36;128.20;2252.80
57030;DHT22;42920;45.306;20.448;2023-11-19T02:04:05;128.20;2252.80
57030;DHT22;42920;45.306;20.448;2023-11-19T02:06:31;128.20;2252.80
57030;DHT22;42920;45.306;20.448;2023-11-19T02:08:58;128.20;2252.80
57030;DHT22;42920;45.306;20.448;2023-11-19T02:11:23;128.30;2252.80
57030;DHT22;42920;45.306;20.448;2023-11-19T02:13:57;128.30;2252.80
57030;DHT22;42920;45.306;20.448;2023-11-19T02:16:23;128.20;2252.80
57030;DHT22;42920;45.306;20.448;2023-11-19T02:18:48;128.20;2252.80
57030;DHT22;42920;45.306;20.448;2023-11-19T02:21:14;128.40;2252.80
57030;DHT22;42920;45.306;20.448;2023-11-19T02:23:40;128.30;2252.80
57030;DHT22;42920;45.306;20.448;2023-11-19T02:26:18;128.20;2252.80
57030;DHT22;42920;45.306;20.448;2023-11-19T02:28:46;128.20;2252.80
57030;DHT22;42920;45.306;20.448;2023-11-19T02:31:12;128.40;2252.80
57030;DHT22;42920;45.306;20.448;2023-11-19T02:33:38;128.40;2252.80
57030;DHT22;42920;45.306;20.448;2023-11-19T02:36:04;128.40;2252.80
57030;DHT22;42920;45.306;20.448;2023-11-19T02:38:30;128.50;2252.80
57030;DHT22;42920;45.306;20.448;2023-11-19T02:40:56;128.50;2252.80
57030;DHT22;42920;45.306;20.448;2023-11-19T02:43:22;128.50;2252.80
57030;DHT22;42920;45.306;20.448;2023-11-19T02:45:48;128.40;2252.80
57030;DHT22;42920;45.306;20.448;2023-11-19T02:48:13;128.20;2252.80
57030;DHT22;42920;45.306;20.448;2023-11-19T02:50:41;128.00;2252.80
57030;DHT22;42920;45.306;20.448;2023-11-19T02:53:07;103.20;2227.20
57030;DHT22;42920;45.306;20.448;2023-11-19T02:55:32;103.10;2227.20
57030;DHT22;42920;45.306;20.448;2023-11-19T02:58:03;103.10;2227.20
57030;DHT22;42920;45.306;20.448;2023-11-19T03:00:34;103.00;2227.20
57030;DHT22;42920;45.306;20.448;2023-11-19T03:03:12;103.00;2227.20
57030;DHT22;42920;45.306;20.448;2023-11-19T03:05:47;103.00;2227.20
57030;DHT22;42920;45.306;20.448;2023-11-19T03:08:14;103.00;2227.20
57030;DHT22;42920;45.306;20.448;2023-11-19T03:10:39;102.90;2227.20
57030;DHT22;42920;45.306;20.448;2023-11-19T03:13:05;102.90;2227.20
57030;DHT22;42920;45.306;20.448;2023-11-19T03:15:31;102.90;2227.20
57030;DHT22;42920;45.306;20.448;2023-11-19T03:17:56;102.90;2227.20
57030;DHT22;42920;45.306;20.448;2023-11-19T03:20:22;103.00;2227.20
57030;DHT22;42920;45.306;20.448;2023-11-19T03:22:49;102.90;2227.20
57030;DHT22;42920;45.306;20.448;2023-11-19T03:25:16;102.80;2227.20
57030;DHT22;42920;45.306;20.448;2023-11-19T03:27:41;102.70;2227.20
57030;DHT22;42920;45.306;20.448;2023-11-19T03:30:07;102.80;2227.20
57030;DHT22;42920;45.306;20.448;2023-11-19T03:32:35;102.90;2227.20
57030;DHT22;42920;45.306;20.448;2023-11-19T03:35:03;102.90;2227.20
57030;DHT22;42920;45.306;20.448;2023-11-19T03:37:32;103.00;2227.20
57030;DHT22;42920;45.306;20.448;2023-11-19T03:39:58;103.10;2227.20
57030;DHT22;42920;45.306;20.448;2023-11-19T03:42:27;103.10;2227.20
57030;DHT22;42920;45.306;20.448;2023-11-19T03:44:53;103.00;2227.20
57030;DHT22;42920;45.306;20.448;2023-11-19T03:47:19;103.00;2227.20
57030;DHT22;42920;45.306;20.448;2023-11-19T03:49:48;102.90;2227.20
57030;DHT22;42920;45.306;20.448;2023-11-19T03:52:14;102.80;2227.20
57030;DHT22;42920;45.306;20.448;2023-11-19T03:54:39;102.80;2227.20
57030;DHT22;42920;45.306;20.448;2023-11-19T03:57:05;102.80;2227.20
57030;DHT22;42920;45.306;20.448;2023-11-19T03:59:30;102.80;2227.20
57030;DHT22;42920;45.306;20.448;2023-11-19T04:01:56;102.60;2227.20
57030;DHT22;42920;45.306;20.448;2023-11-19T04:04:22;102.50;2227.20
57030;DHT22;42920;45.306;20.448;2023-11-19T04:06:48;102.50;2227.20
57030;DHT22;42920;45.306;20.448;2023-11-19T04:09:13;102.60;2227.20
57030;DHT22;42920;45.306;20.448;2023-11-19T04:11:39;102.70;2227.20
57030;DHT22;42920;45.306;20.448;2023-11-19T04:14:05;102.80;2227.20
57030;DHT22;42920;45.306;20.448;2023-11-19T04:16:31;102.70;2227.20
57030;DHT22;42920;45.306;20.448;2023-11-19T04:18:56;102.60;2227.20
57030;DHT22;42920;45.306;20.448;2023-11-19T04:21:22;102.60;2227.20
57030;DHT22;42920;45.306;20.448;2023-11-19T04:23:48;102.60;2227.20
57030;DHT22;42920;45.306;20.448;2023-11-19T04:26:14;102.70;2227.20
57030;DHT22;42920;45.306;20.448;2023-11-19T04:28:41;102.70;2227.20
57030;DHT22;42920;45.306;20.448;2023-11-19T04:31:06;102.60;2227.20
57030;DHT22;42920;45.306;20.448;2023-11-19T04:33:32;102.60;2227.20
57030;DHT22;42920;45.306;20.448;2023-11-19T04:35:57;102.70;2227.20
57030;DHT22;42920;45.306;20.448;2023-11-19T04:38:23;102.80;2227.20
57030;DHT22;42920;45.306;20.448;2023-11-19T04:40:49;102.60;2227.20
57030;DHT22;42920;45.306;20.448;2023-11-19T04:43:14;102.60;2227.20
57030;DHT22;42920;45.306;20.448;2023-11-19T04:45:40;102.70;2227.20
57030;DHT22;42920;45.306;20.448;2023-11-19T04:48:06;102.70;2227.20
57030;DHT22;42920;45.306;20.448;2023-11-19T04:50:32;102.80;2227.20
57030;DHT22;42920;45.306;20.448;2023-11-19T04:52:57;102.80;2227.20
57030;DHT22;42920;45.306;20.448;2023-11-19T04:55:23;102.80;2227.20
57030;DHT22;42920;45.306;20.448;2023-11-19T04:57:48;102.70;2227.20
57030;DHT22;42920;45.306;20.448;2023-11-19T05:00:14;102.60;2227.20
57030;DHT22;42920;45.306;20.448;2023-11-19T05:02:39;102.70;2227.20
57030;DHT22;42920;45.306;20.448;2023-11-19T05:05:05;102.70;2227.20
57030;DHT22;42920;45.306;20.448;2023-11-19T05:07:31;102.60;2227.20
57030;DHT22;42920;45.306;20.448;2023-11-19T05:09:57;102.70;2227.20
57030;DHT22;42920;45.306;20.448;2023-11-19T05:12:23;102.70;2227.20
57030;DHT22;42920;45.306;20.448;2023-11-19T05:14:49;102.70;2227.20
57030;DHT22;42920;45.306;20.448;2023-11-19T05:17:16;102.70;2227.20
57030;DHT22;42920;45.306;20.448;2023-11-19T05:19:43;102.70;2227.20
57030;DHT22;42920;45.306;20.448;2023-11-19T05:22:08;102.70;2227.20
57030;DHT22;42920;45.306;20.448;2023-11-19T05:24:34;102.90;2227.20
57030;DHT22;42920;45.306;20.448;2023-11-19T05:27:01;102.80;2227.20
57030;DHT22;42920;45.306;20.448;2023-11-19T05:29:27;102.90;2227.20
57030;DHT22;42920;45.306;20.448;2023-11-19T05:31:52;102.80;2227.20
57030;DHT22;42920;45.306;20.448;2023-11-19T05:34:20;102.80;2227.20
57030;DHT22;42920;45.306;20.448;2023-11-19T05:36:46;102.80;2227.20
57030;DHT22;42920;45.306;20.448;2023-11-19T05:39:12;102.80;2227.20
57030;DHT22;42920;45.306;20.448;2023-11-19T05:41:37;102.90;2227.20
57030;DHT22;42920;45.306;20.448;2023-11-19T05:44:03;102.90;2227.20
57030;DHT22;42920;45.306;20.448;2023-11-19T05:46:28;102.90;2227.20
57030;DHT22;42920;45.306;20.448;2023-11-19T05:48:54;102.90;2227.20
57030;DHT22;42920;45.306;20.448;2023-11-19T05:51:19;102.90;2227.20
57030;DHT22;42920;45.306;20.448;2023-11-19T05:53:45;103.00;2227.20
57030;DHT22;42920;45.306;20.448;2023-11-19T05:56:11;102.90;2227.20
57030;DHT22;42920;45.306;20.448;2023-11-19T05:58:36;102.90;2227.20
57030;DHT22;42920;45.306;20.448;2023-11-19T06:01:02;128.10;2252.80
57030;DHT22;42920;45.306;20.448;2023-11-19T06:03:28;103.00;2227.20
57030;DHT22;42920;45.306;20.448;2023-11-19T06:05:54;102.90;2227.20
57030;DHT22;42920;45.306;20.448;2023-11-19T06:08:20;103.00;2227.20
57030;DHT22;42920;45.306;20.448;2023-11-19T06:10:46;103.10;2227.20
57030;DHT22;42920;45.306;20.448;2023-11-19T06:13:14;103.10;2227.20
57030;DHT22;42920;45.306;20.448;2023-11-19T06:15:44;103.30;2227.20
57030;DHT22;42920;45.306;20.448;2023-11-19T06:18:09;128.00;2252.80
57030;DHT22;42920;45.306;20.448;2023-11-19T06:20:37;128.00;2252.80
57030;DHT22;42920;45.306;20.448;2023-11-19T06:23:02;128.00;2252.80
57030;DHT22;42920;45.306;20.448;2023-11-19T06:25:28;128.00;2252.80
57030;DHT22;42920;45.306;20.448;2023-11-19T06:27:54;128.10;2252.80
57030;DHT22;42920;45.306;20.448;2023-11-19T06:30:19;103.30;2227.20
57030;DHT22;42920;45.306;20.448;2023-11-19T06:32:46;128.20;2252.80
57030;DHT22;42920;45.306;20.448;2023-11-19T06:35:12;128.20;2252.80
57030;DHT22;42920;45.306;20.448;2023-11-19T06:37:39;128.20;2252.80
57030;DHT22;42920;45.306;20.448;2023-11-19T06:40:05;128.40;2252.80
57030;DHT22;42920;45.306;20.448;2023-11-19T06:42:31;128.60;2252.80
57030;DHT22;42920;45.306;20.448;2023-11-19T06:44:57;128.50;2252.80
57030;DHT22;42920;45.306;20.448;2023-11-19T06:47:26;128.70;2252.80
57030;DHT22;42920;45.306;20.448;2023-11-19T06:49:52;128.70;2252.80
57030;DHT22;42920;45.306;20.448;2023-11-19T06:52:18;128.50;2252.80
57030;DHT22;42920;45.306;20.448;2023-11-19T06:54:44;128.60;2252.80
57030;DHT22;42920;45.306;20.448;2023-11-19T06:57:11;128.70;2252.80
57030;DHT22;42920;45.306;20.448;2023-11-19T06:59:37;128.70;2252.80
57030;DHT22;42920;45.306;20.448;2023-11-19T07:02:02;128.80;2252.80
57030;DHT22;42920;45.306;20.448;2023-11-19T07:04:28;128.80;2252.80
57030;DHT22;42920;45.306;20.448;2023-11-19T07:06:53;128.80;2252.80
57030;DHT22;42920;45.306;20.448;2023-11-19T07:09:19;128.60;2252.80
57030;DHT22;42920;45.306;20.448;2023-11-19T07:11:44;128.70;2252.80
57030;DHT22;42920;45.306;20.448;2023-11-19T07:14:10;128.70;2252.80
57030;DHT22;42920;45.306;20.448;2023-11-19T07:16:36;128.90;2252.80
57030;DHT22;42920;45.306;20.448;2023-11-19T07:19:05;128.90;2252.80
57030;DHT22;42920;45.306;20.448;2023-11-19T07:21:31;128.70;2252.80
57030;DHT22;42920;45.306;20.448;2023-11-19T07:23:58;128.90;2252.80
57030;DHT22;42920;45.306;20.448;2023-11-19T07:26:23;153.70;2252.80
57030;DHT22;42920;45.306;20.448;2023-11-19T07:28:49;153.90;2252.80
57030;DHT22;42920;45.306;20.448;2023-11-19T07:31:15;154.00;2252.80
57030;DHT22;42920;45.306;20.448;2023-11-19T07:33:40;154.20;2252.80
57030;DHT22;42920;45.306;20.448;2023-11-19T07:36:08;154.40;2252.80
57030;DHT22;42920;45.306;20.448;2023-11-19T07:38:34;154.30;2252.80
57030;DHT22;42920;45.306;20.448;2023-11-19T07:40:59;154.20;2252.80
57030;DHT22;42920;45.306;20.448;2023-11-19T07:43:25;154.40;2252.80
57030;DHT22;42920;45.306;20.448;2023-11-19T07:45:51;154.20;2252.80
57030;DHT22;42920;45.306;20.448;2023-11-19T07:48:16;154.10;2252.80
57030;DHT22;42920;45.306;20.448;2023-11-19T07:50:43;154.30;2252.80
57030;DHT22;42920;45.306;20.448;2023-11-19T07:53:08;154.10;2252.80
57030;DHT22;42920;45.306;20.448;2023-11-19T07:55:34;154.10;2252.80
57030;DHT22;42920;45.306;20.448;2023-11-19T07:58:00;154.20;2252.80
57030;DHT22;42920;45.306;20.448;2023-11-19T08:00:26;154.40;2252.80
57030;DHT22;42920;45.306;20.448;2023-11-19T08:02:52;154.40;2252.80
57030;DHT22;42920;45.306;20.448;2023-11-19T08:05:17;154.50;2252.80
57030;DHT22;42920;45.306;20.448;2023-11-19T08:07:43;154.50;2252.80
57030;DHT22;42920;45.306;20.448;2023-11-19T08:10:08;154.50;2252.80
57030;DHT22;42920;45.306;20.448;2023-11-19T08:12:37;154.50;2252.80
57030;DHT22;42920;45.306;20.448;2023-11-19T08:15:03;154.50;2252.80
57030;DHT22;42920;45.306;20.448;2023-11-19T08:17:30;179.20;2252.80
57030;DHT22;42920;45.306;20.448;2023-11-19T08:19:55;179.20;2252.80
57030;DHT22;42920;45.306;20.448;2023-11-19T08:22:21;179.30;2252.80
57030;DHT22;42920;45.306;20.448;2023-11-19T08:24:48;179.30;2252.80
57030;DHT22;42920;45.306;20.448;2023-11-19T08:27:13;154.20;2252.80
57030;DHT22;42920;45.306;20.448;2023-11-19T08:29:39;179.40;2252.80
57030;DHT22;42920;45.306;20.448;2023-11-19T08:32:05;179.40;2252.80
57030;DHT22;42920;45.306;20.448;2023-11-19T08:34:31;179.30;2252.80
57030;DHT22;42920;45.306;20.448;2023-11-19T08:36:57;179.30;2252.80
57030;DHT22;42920;45.306;20.448;2023-11-19T08:39:22;154.50;2252.80
57030;DHT22;42920;45.306;20.448;2023-11-19T08:41:48;179.20;2252.80
57030;DHT22;42920;45.306;20.448;2023-11-19T08:44:14;179.20;2252.80
57030;DHT22;42920;45.306;20.448;2023-11-19T08:46:46;179.60;2252.80
57030;DHT22;42920;45.306;20.448;2023-11-19T08:49:11;179.80;2252.80
57030;DHT22;42920;45.306;20.448;2023-11-19T08:51:37;179.80;2252.80
57030;DHT22;42920;45.306;20.448;2023-11-19T08:54:02;180.00;2252.80
57030;DHT22;42920;45.306;20.448;2023-11-19T08:56:28;180.10;2252.80
57030;DHT22;42920;45.306;20.448;2023-11-19T08:58:58;180.10;2252.80
57030;DHT22;42920;45.306;20.448;2023-11-19T09:01:23;180.10;2252.80
57030;DHT22;42920;45.306;20.448;2023-11-19T09:03:50;180.10;2252.80
57030;DHT22;42920;45.306;20.448;2023-11-19T09:06:15;180.10;2252.80
57030;DHT22;42920;45.306;20.448;2023-11-19T09:08:42;204.90;2252.80
57030;DHT22;42920;45.306;20.448;2023-11-19T09:11:08;205.10;2252.80
57030;DHT22;42920;45.306;20.448;2023-11-19T09:13:34;205.40;2252.80
57030;DHT22;42920;45.306;20.448;2023-11-19T09:16:00;205.30;2252.80
57030;DHT22;42920;45.306;20.448;2023-11-19T09:18:31;205.70;2252.80
57030;DHT22;42920;45.306;20.448;2023-11-19T09:20:57;205.60;2252.80
57030;DHT22;42920;45.306;20.448;2023-11-19T09:23:23;230.40;2252.80
57030;DHT22;42920;45.306;20.448;2023-11-19T09:25:50;230.60;2252.80
57030;DHT22;42920;45.306;20.448;2023-11-19T09:28:16;230.70;2252.80
57030;DHT22;42920;45.306;20.448;2023-11-19T09:30:42;231.00;2252.80
57030;DHT22;42920;45.306;20.448;2023-11-19T09:33:07;231.20;2252.80
57030;DHT22;42920;45.306;20.448;2023-11-19T09:35:33;231.30;2252.80
57030;DHT22;42920;45.306;20.448;2023-11-19T09:37:58;256.20;2252.80
57030;DHT22;42920;45.306;20.448;2023-11-19T09:40:24;256.60;2252.80
57030;DHT22;42920;45.306;20.448;2023-11-19T09:42:50;256.90;2252.80
57030;DHT22;42920;45.306;20.448;2023-11-19T09:45:16;282.00;2278.40
57030;DHT22;42920;45.306;20.448;2023-11-19T09:47:44;282.20;2278.40
57030;DHT22;42920;45.306;20.448;2023-11-19T09:50:16;282.20;2278.40
57030;DHT22;42920;45.306;20.448;2023-11-19T09:52:44;282.30;2278.40
57030;DHT22;42920;45.306;20.448;2023-11-19T09:55:09;282.10;2252.80
57030;DHT22;42920;45.306;20.448;2023-11-19T09:57:35;282.30;2252.80
57030;DHT22;42920;45.306;20.448;2023-11-19T10:00:02;307.40;2201.60
57030;DHT22;42920;45.306;20.448;2023-11-19T10:02:30;307.60;2124.80
57030;DHT22;42920;45.306;20.448;2023-11-19T10:04:56;307.40;2150.40
57030;DHT22;42920;45.306;20.448;2023-11-19T10:07:24;282.50;2124.80
57030;DHT22;42920;45.306;20.448;2023-11-19T10:09:50;282.20;2150.40
57030;DHT22;42920;45.306;20.448;2023-11-19T10:12:16;281.80;2201.60
57030;DHT22;42920;45.306;20.448;2023-11-19T10:14:42;281.80;2252.80
57030;DHT22;42920;45.306;20.448;2023-11-19T10:17:08;282.10;2176.00
57030;DHT22;42920;45.306;20.448;2023-11-19T10:19:34;281.60;2252.80
57030;DHT22;42920;45.306;20.448;2023-11-19T10:22:04;256.90;2252.80
57030;DHT22;42920;45.306;20.448;2023-11-19T10:24:32;282.00;2227.20
57030;DHT22;42920;45.306;20.448;2023-11-19T10:27:04;282.50;2124.80
57030;DHT22;42920;45.306;20.448;2023-11-19T10:29:36;282.40;2099.20
57030;DHT22;42920;45.306;20.448;2023-11-19T10:32:01;282.50;2099.20
57030;DHT22;42920;45.306;20.448;2023-11-19T10:34:27;307.20;2099.20
57030;DHT22;42920;45.306;20.448;2023-11-19T10:44:12;282.20;2073.60
57030;DHT22;42920;45.306;20.448;2023-11-19T10:49:04;282.00;2176.00
57030;DHT22;42920;45.306;20.448;2023-11-19T10:51:29;281.80;2201.60
57030;DHT22;42920;45.306;20.448;2023-11-19T10:53:57;281.70;2176.00
57030;DHT22;42920;45.306;20.448;2023-11-19T10:56:25;256.90;2150.40
57030;DHT22;42920;45.306;20.448;2023-11-19T10:58:56;256.80;2150.40
57030;DHT22;42920;45.306;20.448;2023-11-19T11:01:25;256.80;2201.60
57030;DHT22;42920;45.306;20.448;2023-11-19T11:03:52;256.60;2201.60
57030;DHT22;42920;45.306;20.448;2023-11-19T11:06:19;256.80;2176.00
57030;DHT22;42920;45.306;20.448;2023-11-19T11:08:46;256.70;2227.20
57030;DHT22;42920;45.306;20.448;2023-11-19T11:11:13;256.60;2252.80
57030;DHT22;42920;45.306;20.448;2023-11-19T11:13:42;256.80;2252.80
57030;DHT22;42920;45.306;20.448;2023-11-19T11:16:07;256.90;2252.80
57030;DHT22;42920;45.306;20.448;2023-11-19T11:18:33;281.70;2278.40
57030;DHT22;42920;45.306;20.448;2023-11-19T11:21:07;282.00;2278.40
57030;DHT22;42920;45.306;20.448;2023-11-19T11:36:21;256.60;2252.80
57030;DHT22;42920;45.306;20.448;2023-11-19T11:38:48;256.90;2252.80
57030;DHT22;42920;45.306;20.448;2023-11-19T11:41:18;281.60;2278.40
57030;DHT22;42920;45.306;20.448;2023-11-19T11:43:45;256.70;2252.80
57030;DHT22;42920;45.306;20.448;2023-11-19T11:48:55;256.90;2252.80
57030;DHT22;42920;45.306;20.448;2023-11-19T11:54:07;281.70;2278.40
57030;DHT22;42920;45.306;20.448;2023-11-19T11:56:33;256.70;2252.80
57030;DHT22;42920;45.306;20.448;2023-11-19T11:58:59;256.80;2252.80
57030;DHT22;42920;45.306;20.448;2023-11-19T12:01:25;256.50;2252.80
57030;DHT22;42920;45.306;20.448;2023-11-19T12:03:55;256.80;2252.80
57030;DHT22;42920;45.306;20.448;2023-11-19T12:06:21;256.90;2252.80
57030;DHT22;42920;45.306;20.448;2023-11-19T12:08:47;256.90;2252.80
57030;DHT22;42920;45.306;20.448;2023-11-19T12:11:12;256.80;2252.80
57030;DHT22;42920;45.306;20.448;2023-11-19T12:16:14;281.70;2278.40
57030;DHT22;42920;45.306;20.448;2023-11-19T12:18:40;281.70;2278.40
57030;DHT22;42920;45.306;20.448;2023-11-19T12:21:06;256.90;2252.80
57030;DHT22;42920;45.306;20.448;2023-11-19T12:23:32;256.90;2252.80
57030;DHT22;42920;45.306;20.448;2023-11-19T12:25:58;256.90;2252.80
57030;DHT22;42920;45.306;20.448;2023-11-19T12:28:24;256.80;2252.80
57030;DHT22;42920;45.306;20.448;2023-11-19T12:30:52;256.90;2252.80
57030;DHT22;42920;45.306;20.448;2023-11-19T12:33:19;281.60;2278.40
57030;DHT22;42920;45.306;20.448;2023-11-19T12:35:45;281.60;2278.40
57030;DHT22;42920;45.306;20.448;2023-11-19T12:38:19;256.90;2252.80
57030;DHT22;42920;45.306;20.448;2023-11-19T12:40:46;281.60;2278.40
57030;DHT22;42920;45.306;20.448;2023-11-19T12:43:20;281.60;2278.40
57030;DHT22;42920;45.306;20.448;2023-11-19T12:45:46;256.80;2252.80
57030;DHT22;42920;45.306;20.448;2023-11-19T12:48:12;256.90;2252.80
57030;DHT22;42920;45.306;20.448;2023-11-19T12:53:47;256.70;2252.80
57030;DHT22;42920;45.306;20.448;2023-11-19T12:56:14;256.90;2252.80
57030;DHT22;42920;45.306;20.448;2023-11-19T12:58:41;256.80;2252.80
57030;DHT22;42920;45.306;20.448;2023-11-19T13:01:08;256.50;2252.80
57030;DHT22;42920;45.306;20.448;2023-11-19T13:03:42;256.60;2252.80
57030;DHT22;42920;45.306;20.448;2023-11-19T13:06:09;256.70;2252.80
57030;DHT22;42920;45.306;20.448;2023-11-19T13:11:03;256.80;2252.80
57030;DHT22;42920;45.306;20.448;2023-11-19T13:13:29;256.90;2252.80
57030;DHT22;42920;45.306;20.448;2023-11-19T13:16:01;256.80;2252.80
57030;DHT22;42920;45.306;20.448;2023-11-19T13:18:28;281.90;2278.40
57030;DHT22;42920;45.306;20.448;2023-11-19T13:20:53;256.80;2252.80
57030;DHT22;42920;45.306;20.448;2023-11-19T13:23:22;256.90;2252.80
57030;DHT22;42920;45.306;20.448;2023-11-19T13:25:48;256.90;2252.80
57030;DHT22;42920;45.306;20.448;2023-11-19T13:28:14;256.70;2252.80
57030;DHT22;42920;45.306;20.448;2023-11-19T13:30:39;256.70;2252.80
57030;DHT22;42920;45.306;20.448;2023-11-19T13:33:05;256.60;2252.80
57030;DHT22;42920;45.306;20.448;2023-11-19T13:35:30;256.50;2252.80
57030;DHT22;42920;45.306;20.448;2023-11-19T13:37:56;256.30;2252.80
57030;DHT22;42920;45.306;20.448;2023-11-19T13:40:22;256.20;2252.80
57030;DHT22;42920;45.306;20.448;2023-11-19T13:42:49;256.10;2252.80
57030;DHT22;42920;45.306;20.448;2023-11-19T13:45:15;231.30;2252.80
57030;DHT22;42920;45.306;20.448;2023-11-19T13:47:43;231.20;2252.80
57030;DHT22;42920;45.306;20.448;2023-11-19T13:50:09;256.00;2252.80
57030;DHT22;42920;45.306;20.448;2023-11-19T13:52:36;231.30;2252.80
57030;DHT22;42920;45.306;20.448;2023-11-19T13:55:04;231.30;2252.80
57030;DHT22;42920;45.306;20.448;2023-11-19T13:57:30;231.20;2252.80
57030;DHT22;42920;45.306;20.448;2023-11-19T13:59:56;231.20;2252.80
57030;DHT22;42920;45.306;20.448;2023-11-19T14:02:22;231.20;2252.80
57030;DHT22;42920;45.306;20.448;2023-11-19T14:04:48;231.20;2252.80
57030;DHT22;42920;45.306;20.448;2023-11-19T14:07:13;256.00;2252.80
57030;DHT22;42920;45.306;20.448;2023-11-19T14:09:41;231.30;2252.80
57030;DHT22;42920;45.306;20.448;2023-11-19T14:12:07;256.10;2252.80
57030;DHT22;42920;45.306;20.448;2023-11-19T14:14:34;231.30;2252.80
57030;DHT22;42920;45.306;20.448;2023-11-19T14:16:59;231.30;2252.80
57030;DHT22;42920;45.306;20.448;2023-11-19T14:19:25;231.20;2252.80
57030;DHT22;42920;45.306;20.448;2023-11-19T14:21:50;231.00;2252.80
57030;DHT22;42920;45.306;20.448;2023-11-19T14:24:16;231.00;2252.80
57030;DHT22;42920;45.306;20.448;2023-11-19T14:26:42;231.10;2252.80
57030;DHT22;42920;45.306;20.448;2023-11-19T14:29:07;231.00;2252.80
57030;DHT22;42920;45.306;20.448;2023-11-19T14:31:33;231.00;2252.80
57030;DHT22;42920;45.306;20.448;2023-11-19T14:33:58;230.90;2252.80
57030;DHT22;42920;45.306;20.448;2023-11-19T14:36:24;230.90;2252.80
57030;DHT22;42920;45.306;20.448;2023-11-19T14:38:50;230.90;2252.80
57030;DHT22;42920;45.306;20.448;2023-11-19T14:41:16;230.80;2252.80
57030;DHT22;42920;45.306;20.448;2023-11-19T14:43:41;230.80;2252.80
57030;DHT22;42920;45.306;20.448;2023-11-19T14:46:08;230.90;2252.80
57030;DHT22;42920;45.306;20.448;2023-11-19T14:48:33;230.60;2252.80
57030;DHT22;42920;45.306;20.448;2023-11-19T14:50:59;230.50;2252.80
57030;DHT22;42920;45.306;20.448;2023-11-19T14:53:24;230.50;2252.80
57030;DHT22;42920;45.306;20.448;2023-11-19T14:55:50;230.50;2252.80
57030;DHT22;42920;45.306;20.448;2023-11-19T14:58:16;230.50;2252.80
57030;DHT22;42920;45.306;20.448;2023-11-19T15:00:41;230.60;2252.80
57030;DHT22;42920;45.306;20.448;2023-11-19T15:03:07;230.60;2252.80
57030;DHT22;42920;45.306;20.448;2023-11-19T15:05:34;230.50;2252.80
57030;DHT22;42920;45.306;20.448;2023-11-19T15:07:59;205.70;2252.80